Kristin D — C6XA6 — position and weather

sailwx.info

Track history (hours):
 
Tides and Currents Weather Stations Pressure Air Temp Water Temp Dewpoint Dewpoint Depression Visibility Wind Speed Wind Dir Waves Ship Positions

Kristin D

Last reported at 2016-May-26 20:29 UTC. Time now 2016-May-27 23:59 UTC.
Position N 55°33' E 010°35'.

Length 90 m; draft 4.1 m.

Type: Cargo ship. MMSI: 311003700.

Date/timePositionNaut miles runAvg speedWind from/ knotsBaromVisibWave heightAir tempDewpointWater temp
2016-May-26 20:29N 55°33' E 010°35'9 0.6
2016-May-26 03:31N 55°26' E 010°24'2 2.6
2016-May-26 02:34N 55°28' E 010°26'6 6.2
2016-May-26 01:34N 55°32' E 010°34'57 9.4
2016-May-25 19:28N 56°09' E 011°51'1010.9
2016-May-25 18:33N 56°11' E 012°09'9 9.3
2016-May-25 17:33N 56°10' E 012°25'1111.3
2016-May-25 16:34N 56°02' E 012°40'1211.5
2016-May-25 15:34N 55°51' E 012°44'1110.2
2016-May-25 14:31N 55°41' E 012°38'0 0.0
2016-May-25 13:31N 55°41' E 012°38'0 0.0
2016-May-25 12:31N 55°41' E 012°38'0 0.0
2016-May-25 11:31N 55°41' E 012°38'0 0.0
2016-May-25 10:31N 55°41' E 012°38'0 0.0
2016-May-25 09:31N 55°41' E 012°38'0 0.0
2016-May-25 08:31N 55°41' E 012°38'0 0.0
2016-May-25 07:31N 55°41' E 012°38'0 0.0
2016-May-25 06:31N 55°41' E 012°38'0 0.0
2016-May-25 05:31N 55°41' E 012°38'0 0.0
2016-May-25 04:31N 55°41' E 012°38'0 0.0
2016-May-25 03:31N 55°41' E 012°38'0 0.0
2016-May-25 02:31N 55°41' E 012°38'0 0.0
2016-May-25 01:31N 55°41' E 012°38'0 0.0
2016-May-25 00:31N 55°41' E 012°38'4 3.8
2016-May-24 23:33N 55°44' E 012°40'7 6.9
2016-May-24 22:33N 55°51' E 012°40'9 8.9
2016-May-24 21:33N 55°60' E 012°37'8 7.7
2016-May-24 20:33N 56°07' E 012°31'1010.1
2016-May-24 19:33N 56°14' E 012°19'1212.1
2016-May-24 18:33N 56°24' E 012°06'1212.2
2016-May-24 17:33N 56°35' E 011°56'1312.6
2016-May-24 16:33N 56°47' E 011°50'1312.7
2016-May-24 15:33N 56°59' E 011°42'1312.6
2016-May-24 14:33N 57°11' E 011°33'1212.3
2016-May-24 13:33N 57°22' E 011°24'1211.9
2016-May-24 12:33N 57°31' E 011°10'1111.3
2016-May-24 11:34N 57°36' E 010°51'10 2.9
2016-May-24 08:11N 57°42' E 010°36'0 0.0
2016-May-24 06:26N 57°42' E 010°36'0 0.0
2016-May-24 03:26N 57°42' E 010°36'0 0.0
2016-May-24 02:26N 57°42' E 010°36'0 0.0
2016-May-24 01:26N 57°42' E 010°36'0 0.0
2016-May-24 00:32N 57°42' E 010°36'0 0.0
2016-May-23 23:32N 57°42' E 010°36'0 0.0
2016-May-23 22:32N 57°42' E 010°36'0 0.0
2016-May-23 21:32N 57°42' E 010°36'0 0.0
2016-May-23 20:32N 57°42' E 010°36'0 0.0
2016-May-23 19:32N 57°42' E 010°36'0 0.0
2016-May-23 18:29N 57°42' E 010°36'0 0.0
2016-May-23 17:26N 57°42' E 010°36'0 0.0
2016-May-23 14:23N 57°42' E 010°36'0 0.0
2016-May-23 12:29N 57°42' E 010°36'0 0.0
2016-May-23 10:29N 57°42' E 010°36'0 0.0
2016-May-23 07:29N 57°42' E 010°36'0 0.0
2016-May-23 04:11N 57°42' E 010°36'0 0.0
2016-May-23 03:26N 57°42' E 010°36'0 0.0
2016-May-23 02:23N 57°42' E 010°36'0 0.0
2016-May-23 01:17N 57°42' E 010°36'0 0.0
2016-May-23 00:32N 57°42' E 010°36'0 0.0
2016-May-22 23:32N 57°42' E 010°36'0 0.0
2016-May-22 21:32N 57°42' E 010°36'0 0.0
2016-May-22 20:31N 57°42' E 010°36'0 0.0
2016-May-22 19:31N 57°42' E 010°36'0 0.0
2016-May-22 18:31N 57°42' E 010°36'0 0.0
2016-May-22 17:31N 57°42' E 010°36'0 0.0
2016-May-22 16:31N 57°42' E 010°36'0 0.0
2016-May-22 15:31N 57°42' E 010°36'0 0.0
2016-May-22 14:31N 57°42' E 010°36'0 0.0
2016-May-22 13:31N 57°42' E 010°36'0 0.0
2016-May-22 12:31N 57°42' E 010°36'0 0.4
2016-May-22 11:33N 57°42' E 010°37'5 5.1
2016-May-22 10:33N 57°46' E 010°41'20310.0
2016-May-21 14:18N 55°20' E 006°26'8310.7
2016-May-21 06:32N 54°09' E 005°11'1110.8
2016-May-21 05:33N 53°59' E 005°04'1111.0
2016-May-21 04:32N 53°49' E 004°57'1411.1
2016-May-21 03:18N 53°36' E 004°49'3010.3
2016-May-21 00:24N 53°09' E 004°28'8 9.7
2016-May-20 23:33N 53°01' E 004°22'10 9.7
2016-May-20 22:33N 52°53' E 004°15'9 9.4
2016-May-20 21:33N 52°45' E 004°06'9 9.1
2016-May-20 20:33N 52°38' E 003°56'9 9.0
2016-May-20 19:32N 52°31' E 003°46'9 9.1
2016-May-20 18:32N 52°24' E 003°38'10 9.7
2016-May-20 17:33N 52°15' E 003°32'27 9.1
2016-May-20 14:31N 51°48' E 003°22'0 0.0
2016-May-20 02:28N 51°48' E 003°22'0 0.0
2016-May-20 01:28N 51°48' E 003°22'0 0.0
2016-May-20 00:32N 51°48' E 003°22'0 0.0
2016-May-19 23:32N 51°48' E 003°22'8 7.3
2016-May-19 22:26N 51°40' E 003°18'1011.5
2016-May-19 21:33N 51°31' E 003°26'9 9.5
2016-May-19 20:34N 51°25' E 003°37'1111.0
2016-May-19 19:33N 51°22' E 003°54'9 8.7
2016-May-19 18:34N 51°22' E 004°08'9 8.9
2016-May-19 17:34N 51°16' E 004°18'1 0.6
2016-May-19 16:33N 51°16' E 004°17'1 1.3
2016-May-19 15:31N 51°16' E 004°15'0 0.1
2016-May-19 14:31N 51°16' E 004°15'0 0.0
2016-May-19 13:31N 51°16' E 004°15'0 0.0
2016-May-19 12:31N 51°16' E 004°15'0 0.0
2016-May-19 11:31N 51°16' E 004°15'0 0.0
2016-May-19 10:31N 51°16' E 004°15'0 0.0
2016-May-19 09:31N 51°16' E 004°15'0 0.0
2016-May-19 08:31N 51°16' E 004°15'0 0.0
2016-May-19 07:31N 51°16' E 004°15'0 0.0
2016-May-19 06:31N 51°16' E 004°15'0 0.0
2016-May-19 05:31N 51°16' E 004°15'0 0.0
2016-May-19 04:31N 51°16' E 004°15'0 0.0
2016-May-19 03:31N 51°16' E 004°15'0 0.0
2016-May-19 02:31N 51°16' E 004°15'0 0.0
2016-May-19 01:31N 51°16' E 004°15'0 0.0
2016-May-19 00:31N 51°16' E 004°15'0 0.0
2016-May-18 23:31N 51°16' E 004°15'0 0.0
2016-May-18 22:31N 51°16' E 004°15'0 0.0
2016-May-18 21:31N 51°16' E 004°15'0 0.0
2016-May-18 20:31N 51°16' E 004°15'0 0.0
2016-May-18 19:31N 51°16' E 004°15'0 0.0
2016-May-18 18:31N 51°16' E 004°15'0 0.0
2016-May-18 17:34N 51°16' E 004°15'0 0.2
2016-May-18 16:34N 51°16' E 004°15'0 0.0
2016-May-18 15:33N 51°16' E 004°15'0 0.0
2016-May-18 14:33N 51°16' E 004°15'0 0.0
2016-May-18 13:33N 51°16' E 004°15'0 0.0
2016-May-18 12:33N 51°16' E 004°15'0 0.0
2016-May-18 11:33N 51°16' E 004°15'0 0.0
2016-May-18 10:33N 51°16' E 004°15'0 0.0
2016-May-18 09:33N 51°16' E 004°15'0 0.0
2016-May-18 08:33N 51°16' E 004°15'0 0.0
2016-May-18 07:33N 51°16' E 004°15'0 0.0
2016-May-18 06:33N 51°16' E 004°15'0 0.0
2016-May-18 05:33N 51°16' E 004°15'0 0.0
2016-May-18 04:24N 51°16' E 004°15'0 0.0
2016-May-18 03:33N 51°16' E 004°15'0 0.0
2016-May-18 02:33N 51°16' E 004°15'0 0.0
2016-May-18 01:30N 51°16' E 004°15'0 0.0
2016-May-18 00:33N 51°16' E 004°15'0 0.0
2016-May-17 23:33N 51°16' E 004°15'0 0.0
2016-May-17 22:33N 51°16' E 004°15'0 0.0
2016-May-17 21:33N 51°16' E 004°15'0 0.0
2016-May-17 20:33N 51°16' E 004°15'0 0.0
2016-May-17 19:33N 51°16' E 004°15'0 0.0
2016-May-17 18:33N 51°16' E 004°15'0 0.0
2016-May-17 17:33N 51°16' E 004°15'0 0.0
2016-May-17 16:27N 51°16' E 004°15'0 0.0
2016-May-17 15:33N 51°16' E 004°15'0 0.0
2016-May-17 14:30N 51°16' E 004°15'0 0.0
2016-May-17 13:33N 51°16' E 004°15'0 0.0
2016-May-17 12:33N 51°16' E 004°15'0 0.0
2016-May-17 11:33N 51°16' E 004°15'0 0.0
2016-May-17 10:33N 51°16' E 004°15'0 0.0
2016-May-17 09:33N 51°16' E 004°15'0 0.0
2016-May-17 08:33N 51°16' E 004°15'0 0.0
2016-May-17 07:33N 51°16' E 004°15'0 0.0
2016-May-17 06:33N 51°16' E 004°15'0 0.0
2016-May-17 05:33N 51°16' E 004°15'0 0.0
2016-May-17 04:32N 51°16' E 004°15'0 0.0
2016-May-17 03:32N 51°16' E 004°15'0 0.0
2016-May-17 02:32N 51°16' E 004°15'0 0.0
2016-May-17 01:32N 51°16' E 004°15'0 0.0
2016-May-17 00:32N 51°16' E 004°15'0 0.0
2016-May-16 23:29N 51°16' E 004°15'0 0.0
2016-May-16 22:32N 51°16' E 004°15'0 0.0
2016-May-16 21:32N 51°16' E 004°15'0 0.0
2016-May-16 20:32N 51°16' E 004°15'  
Track history (hours):
 
Tides and Currents Weather Stations Pressure Air Temp Water Temp Dewpoint Dewpoint Depression Visibility Wind Speed Wind Dir Waves Ship Positions

Kristin D

Last reported at 2016-May-26 20:29 UTC. Time now 2016-May-27 23:59 UTC.
Position N 55°33' E 010°35'.

Length 90 m; draft 4.1 m.

Type: Cargo ship. MMSI: 311003700.

Date/timePositionNaut miles runAvg speedWind from/ knotsBaromVisibWave heightAir tempDewpointWater temp
2016-May-26 20:29N 55°33' E 010°35'9 0.6
2016-May-26 03:31N 55°26' E 010°24'2 2.6
2016-May-26 02:34N 55°28' E 010°26'6 6.2
2016-May-26 01:34N 55°32' E 010°34'57 9.4
2016-May-25 19:28N 56°09' E 011°51'1010.9
2016-May-25 18:33N 56°11' E 012°09'9 9.3
2016-May-25 17:33N 56°10' E 012°25'1111.3
2016-May-25 16:34N 56°02' E 012°40'1211.5
2016-May-25 15:34N 55°51' E 012°44'1110.2
2016-May-25 14:31N 55°41' E 012°38'0 0.0
2016-May-25 13:31N 55°41' E 012°38'0 0.0
2016-May-25 12:31N 55°41' E 012°38'0 0.0
2016-May-25 11:31N 55°41' E 012°38'0 0.0
2016-May-25 10:31N 55°41' E 012°38'0 0.0
2016-May-25 09:31N 55°41' E 012°38'0 0.0
2016-May-25 08:31N 55°41' E 012°38'0 0.0
2016-May-25 07:31N 55°41' E 012°38'0 0.0
2016-May-25 06:31N 55°41' E 012°38'0 0.0
2016-May-25 05:31N 55°41' E 012°38'0 0.0
2016-May-25 04:31N 55°41' E 012°38'0 0.0
2016-May-25 03:31N 55°41' E 012°38'0 0.0
2016-May-25 02:31N 55°41' E 012°38'0 0.0
2016-May-25 01:31N 55°41' E 012°38'0 0.0
2016-May-25 00:31N 55°41' E 012°38'4 3.8
2016-May-24 23:33N 55°44' E 012°40'7 6.9
2016-May-24 22:33N 55°51' E 012°40'9 8.9
2016-May-24 21:33N 55°60' E 012°37'8 7.7
2016-May-24 20:33N 56°07' E 012°31'1010.1
2016-May-24 19:33N 56°14' E 012°19'1212.1
2016-May-24 18:33N 56°24' E 012°06'1212.2
2016-May-24 17:33N 56°35' E 011°56'1312.6
2016-May-24 16:33N 56°47' E 011°50'1312.7
2016-May-24 15:33N 56°59' E 011°42'1312.6
2016-May-24 14:33N 57°11' E 011°33'1212.3
2016-May-24 13:33N 57°22' E 011°24'1211.9
2016-May-24 12:33N 57°31' E 011°10'1111.3
2016-May-24 11:34N 57°36' E 010°51'10 2.9
2016-May-24 08:11N 57°42' E 010°36'0 0.0
2016-May-24 06:26N 57°42' E 010°36'0 0.0
2016-May-24 03:26N 57°42' E 010°36'0 0.0
2016-May-24 02:26N 57°42' E 010°36'0 0.0
2016-May-24 01:26N 57°42' E 010°36'0 0.0
2016-May-24 00:32N 57°42' E 010°36'0 0.0
2016-May-23 23:32N 57°42' E 010°36'0 0.0
2016-May-23 22:32N 57°42' E 010°36'0 0.0
2016-May-23 21:32N 57°42' E 010°36'0 0.0
2016-May-23 20:32N 57°42' E 010°36'0 0.0
2016-May-23 19:32N 57°42' E 010°36'0 0.0
2016-May-23 18:29N 57°42' E 010°36'0 0.0
2016-May-23 17:26N 57°42' E 010°36'0 0.0
2016-May-23 14:23N 57°42' E 010°36'0 0.0
2016-May-23 12:29N 57°42' E 010°36'0 0.0
2016-May-23 10:29N 57°42' E 010°36'0 0.0
2016-May-23 07:29N 57°42' E 010°36'0 0.0
2016-May-23 04:11N 57°42' E 010°36'0 0.0
2016-May-23 03:26N 57°42' E 010°36'0 0.0
2016-May-23 02:23N 57°42' E 010°36'0 0.0
2016-May-23 01:17N 57°42' E 010°36'0 0.0
2016-May-23 00:32N 57°42' E 010°36'0 0.0
2016-May-22 23:32N 57°42' E 010°36'0 0.0
2016-May-22 21:32N 57°42' E 010°36'0 0.0
2016-May-22 20:31N 57°42' E 010°36'0 0.0
2016-May-22 19:31N 57°42' E 010°36'0 0.0
2016-May-22 18:31N 57°42' E 010°36'0 0.0
2016-May-22 17:31N 57°42' E 010°36'0 0.0
2016-May-22 16:31N 57°42' E 010°36'0 0.0
2016-May-22 15:31N 57°42' E 010°36'0 0.0
2016-May-22 14:31N 57°42' E 010°36'0 0.0
2016-May-22 13:31N 57°42' E 010°36'0 0.0
2016-May-22 12:31N 57°42' E 010°36'0 0.4
2016-May-22 11:33N 57°42' E 010°37'5 5.1
2016-May-22 10:33N 57°46' E 010°41'20310.0
2016-May-21 14:18N 55°20' E 006°26'8310.7
2016-May-21 06:32N 54°09' E 005°11'1110.8
2016-May-21 05:33N 53°59' E 005°04'1111.0
2016-May-21 04:32N 53°49' E 004°57'1411.1
2016-May-21 03:18N 53°36' E 004°49'3010.3
2016-May-21 00:24N 53°09' E 004°28'8 9.7
2016-May-20 23:33N 53°01' E 004°22'10 9.7
2016-May-20 22:33N 52°53' E 004°15'9 9.4
2016-May-20 21:33N 52°45' E 004°06'9 9.1
2016-May-20 20:33N 52°38' E 003°56'9 9.0
2016-May-20 19:32N 52°31' E 003°46'9 9.1
2016-May-20 18:32N 52°24' E 003°38'10 9.7
2016-May-20 17:33N 52°15' E 003°32'27 9.1
2016-May-20 14:31N 51°48' E 003°22'0 0.0
2016-May-20 02:28N 51°48' E 003°22'0 0.0
2016-May-20 01:28N 51°48' E 003°22'0 0.0
2016-May-20 00:32N 51°48' E 003°22'0 0.0
2016-May-19 23:32N 51°48' E 003°22'8 7.3
2016-May-19 22:26N 51°40' E 003°18'1011.5
2016-May-19 21:33N 51°31' E 003°26'9 9.5
2016-May-19 20:34N 51°25' E 003°37'1111.0
2016-May-19 19:33N 51°22' E 003°54'9 8.7
2016-May-19 18:34N 51°22' E 004°08'9 8.9
2016-May-19 17:34N 51°16' E 004°18'1 0.6
2016-May-19 16:33N 51°16' E 004°17'1 1.3
2016-May-19 15:31N 51°16' E 004°15'0 0.1
2016-May-19 14:31N 51°16' E 004°15'0 0.0
2016-May-19 13:31N 51°16' E 004°15'0 0.0
2016-May-19 12:31N 51°16' E 004°15'0 0.0
2016-May-19 11:31N 51°16' E 004°15'0 0.0
2016-May-19 10:31N 51°16' E 004°15'0 0.0
2016-May-19 09:31N 51°16' E 004°15'0 0.0
2016-May-19 08:31N 51°16' E 004°15'0 0.0
2016-May-19 07:31N 51°16' E 004°15'0 0.0
2016-May-19 06:31N 51°16' E 004°15'0 0.0
2016-May-19 05:31N 51°16' E 004°15'0 0.0
2016-May-19 04:31N 51°16' E 004°15'0 0.0
2016-May-19 03:31N 51°16' E 004°15'0 0.0
2016-May-19 02:31N 51°16' E 004°15'0 0.0
2016-May-19 01:31N 51°16' E 004°15'0 0.0
2016-May-19 00:31N 51°16' E 004°15'0 0.0
2016-May-18 23:31N 51°16' E 004°15'0 0.0
2016-May-18 22:31N 51°16' E 004°15'0 0.0
2016-May-18 21:31N 51°16' E 004°15'0 0.0
2016-May-18 20:31N 51°16' E 004°15'0 0.0
2016-May-18 19:31N 51°16' E 004°15'0 0.0
2016-May-18 18:31N 51°16' E 004°15'0 0.0
2016-May-18 17:34N 51°16' E 004°15'0 0.2
2016-May-18 16:34N 51°16' E 004°15'0 0.0
2016-May-18 15:33N 51°16' E 004°15'0 0.0
2016-May-18 14:33N 51°16' E 004°15'0 0.0
2016-May-18 13:33N 51°16' E 004°15'0 0.0
2016-May-18 12:33N 51°16' E 004°15'0 0.0
2016-May-18 11:33N 51°16' E 004°15'0 0.0
2016-May-18 10:33N 51°16' E 004°15'0 0.0
2016-May-18 09:33N 51°16' E 004°15'0 0.0
2016-May-18 08:33N 51°16' E 004°15'0 0.0
2016-May-18 07:33N 51°16' E 004°15'0 0.0
2016-May-18 06:33N 51°16' E 004°15'0 0.0
2016-May-18 05:33N 51°16' E 004°15'0 0.0
2016-May-18 04:24N 51°16' E 004°15'0 0.0
2016-May-18 03:33N 51°16' E 004°15'0 0.0
2016-May-18 02:33N 51°16' E 004°15'0 0.0
2016-May-18 01:30N 51°16' E 004°15'0 0.0
2016-May-18 00:33N 51°16' E 004°15'0 0.0
2016-May-17 23:33N 51°16' E 004°15'0 0.0
2016-May-17 22:33N 51°16' E 004°15'0 0.0
2016-May-17 21:33N 51°16' E 004°15'0 0.0
2016-May-17 20:33N 51°16' E 004°15'0 0.0
2016-May-17 19:33N 51°16' E 004°15'0 0.0
2016-May-17 18:33N 51°16' E 004°15'0 0.0
2016-May-17 17:33N 51°16' E 004°15'0 0.0
2016-May-17 16:27N 51°16' E 004°15'0 0.0
2016-May-17 15:33N 51°16' E 004°15'0 0.0
2016-May-17 14:30N 51°16' E 004°15'0 0.0
2016-May-17 13:33N 51°16' E 004°15'0 0.0
2016-May-17 12:33N 51°16' E 004°15'0 0.0
2016-May-17 11:33N 51°16' E 004°15'0 0.0
2016-May-17 10:33N 51°16' E 004°15'0 0.0
2016-May-17 09:33N 51°16' E 004°15'0 0.0
2016-May-17 08:33N 51°16' E 004°15'0 0.0
2016-May-17 07:33N 51°16' E 004°15'0 0.0
2016-May-17 06:33N 51°16' E 004°15'0 0.0
2016-May-17 05:33N 51°16' E 004°15'0 0.0
2016-May-17 04:32N 51°16' E 004°15'0 0.0
2016-May-17 03:32N 51°16' E 004°15'0 0.0
2016-May-17 02:32N 51°16' E 004°15'0 0.0
2016-May-17 01:32N 51°16' E 004°15'0 0.0
2016-May-17 00:32N 51°16' E 004°15'0 0.0
2016-May-16 23:29N 51°16' E 004°15'0 0.0
2016-May-16 22:32N 51°16' E 004°15'0 0.0
2016-May-16 21:32N 51°16' E 004°15'0 0.0
2016-May-16 20:32N 51°16' E 004°15'  

Dump ship's entire track history